Time;durP1;ratioP1;P1;durP2;ratioP2;P2;SDS_P1;SDS_P2;PMS_P1;PMS_P2;Temp;Humidity;BMP_temperature;BMP_pressure;BME280_temperature;BME280_humidity;BME280_pressure;Samples;Min_cycle;Max_cycle;Signal;HPM_P1;HPM_P2
2021/12/28 00:01:08;;;;;;;19.33;2.45;;;;;;;;;;4994096;28;20046;-68
2021/12/28 00:03:37;;;;;;;16.40;2.40;;;;;;;;;;4994587;28;20068;-69
2021/12/28 00:06:04;;;;;;;13.25;2.50;;;;;;;;;;4994315;28;20046;-69
2021/12/28 00:08:31;;;;;;;14.47;2.40;;;;;;;;;;4994296;28;20046;-70
2021/12/28 00:10:58;;;;;;;13.75;2.28;;;;;;;;;;4993889;28;20050;-69
2021/12/28 00:13:25;;;;;;;10.93;2.20;;;;;;;;;;4994177;28;20061;-70
2021/12/28 00:18:21;;;;;;;8.82;1.10;;;;;;;;;;4993814;28;20570;-70
2021/12/28 00:20:51;;;;;;;9.52;1.10;;;;;;;;;;4994019;28;20462;-70
2021/12/28 00:23:20;;;;;;;9.10;1.20;;;;;;;;;;4993775;28;20101;-70
2021/12/28 00:25:48;;;;;;;6.40;0.82;;;;;;;;;;4994170;28;20047;-70
2021/12/28 00:28:15;;;;;;;5.57;1.27;;;;;;;;;;4992816;28;20166;-71
2021/12/28 00:30:41;;;;;;;10.23;1.05;;;;;;;;;;4993857;28;20466;-71
2021/12/28 00:33:08;;;;;;;6.27;1.50;;;;;;;;;;4992475;28;20129;-71
2021/12/28 00:35:37;;;;;;;11.40;1.17;;;;;;;;;;4994378;28;20458;-70
2021/12/28 00:38:04;;;;;;;9.02;1.60;;;;;;;;;;4993878;28;20458;-71
2021/12/28 00:40:31;;;;;;;6.78;1.38;;;;;;;;;;4993711;28;20053;-69
2021/12/28 00:42:57;;;;;;;11.02;1.83;;;;;;;;;;4993528;28;20050;-71
2021/12/28 00:45:24;;;;;;;8.38;2.10;;;;;;;;;;4993542;28;20100;-71
2021/12/28 00:47:51;;;;;;;6.30;1.43;;;;;;;;;;4993737;28;20469;-70
2021/12/28 00:50:18;;;;;;;6.60;1.00;;;;;;;;;;4993347;28;20104;-71
2021/12/28 00:52:45;;;;;;;8.30;1.33;;;;;;;;;;4993470;28;20081;-71
2021/12/28 00:55:12;;;;;;;7.13;1.33;;;;;;;;;;4993279;28;20062;-69
2021/12/28 00:57:38;;;;;;;5.10;1.00;;;;;;;;;;4993581;28;20100;-71
2021/12/28 01:00:06;;;;;;;3.03;0.88;;;;;;;;;;4993347;28;20054;-71
2021/12/28 01:02:33;;;;;;;3.30;0.88;;;;;;;;;;4991942;28;20046;-71
2021/12/28 01:05:00;;;;;;;3.08;1.05;;;;;;;;;;4993423;28;20066;-69
2021/12/28 01:07:27;;;;;;;4.25;0.70;;;;;;;;;;4993006;28;20096;-69
2021/12/28 01:09:53;;;;;;;3.30;0.80;;;;;;;;;;4993099;28;20050;-69
2021/12/28 01:12:20;;;;;;;1.95;0.85;;;;;;;;;;4993131;28;20058;-69
2021/12/28 01:14:46;;;;;;;4.57;0.85;;;;;;;;;;4992993;28;20054;-69
2021/12/28 01:17:13;;;;;;;2.55;1.10;;;;;;;;;;4993272;28;20461;-69
2021/12/28 01:19:39;;;;;;;2.58;1.25;;;;;;;;;;4993367;28;20529;-68
2021/12/28 01:22:06;;;;;;;4.03;0.95;;;;;;;;;;4993062;28;20050;-70
2021/12/28 01:24:32;;;;;;;4.28;1.25;;;;;;;;;;4992968;28;20046;-70
2021/12/28 01:26:59;;;;;;;1.35;0.82;;;;;;;;;;4992767;28;20046;-70
2021/12/28 01:29:25;;;;;;;2.35;0.85;;;;;;;;;;4992099;28;20557;-70
2021/12/28 01:31:52;;;;;;;2.88;0.85;;;;;;;;;;4992791;28;20042;-70
2021/12/28 01:34:19;;;;;;;3.15;0.80;;;;;;;;;;4992660;28;20132;-70
2021/12/28 01:36:46;;;;;;;3.72;0.85;;;;;;;;;;4992849;28;20100;-68
2021/12/28 01:39:12;;;;;;;2.95;0.90;;;;;;;;;;4991706;28;20050;-68
2021/12/28 01:41:39;;;;;;;3.53;1.00;;;;;;;;;;4992554;28;20513;-68
2021/12/28 01:44:07;;;;;;;3.75;0.90;;;;;;;;;;4992779;28;20046;-68
2021/12/28 01:46:34;;;;;;;;;;;;;;;;;;4992873;28;20050;-68
2021/12/28 01:49:01;;;;;;;0.93;0.90;;;;;;;;;;4992785;28;20033;-68
2021/12/28 01:51:28;;;;;;;2.37;1.10;;;;;;;;;;4992503;28;20081;-68
2021/12/28 01:53:56;;;;;;;3.05;1.20;;;;;;;;;;4992625;28;20444;-68
2021/12/28 01:56:25;;;;;;;3.88;1.30;;;;;;;;;;4992468;28;20124;-68
2021/12/28 01:58:51;;;;;;;2.60;0.93;;;;;;;;;;4992520;28;20046;-68
2021/12/28 02:01:18;;;;;;;2.55;1.40;;;;;;;;;;4992365;28;20450;-68
2021/12/28 02:03:46;;;;;;;1.67;1.17;;;;;;;;;;4992222;28;20491;-68
2021/12/28 02:06:13;;;;;;;3.58;1.30;;;;;;;;;;4992499;28;20088;-68
2021/12/28 02:08:40;;;;;;;2.05;0.98;;;;;;;;;;4992180;28;20407;-68
2021/12/28 02:11:08;;;;;;;1.63;0.90;;;;;;;;;;4992456;28;20109;-70
2021/12/28 02:13:35;;;;;;;2.05;0.98;;;;;;;;;;4992298;28;20089;-68
2021/12/28 02:16:02;;;;;;;2.50;0.75;;;;;;;;;;4992424;28;20054;-68
2021/12/28 02:18:29;;;;;;;1.85;0.73;;;;;;;;;;4992194;28;20047;-68
2021/12/28 02:20:57;;;;;;;0.52;0.50;;;;;;;;;;4992469;28;20132;-68
2021/12/28 02:23:23;;;;;;;2.17;0.60;;;;;;;;;;4992205;28;20081;-70
2021/12/28 02:25:51;;;;;;;0.60;0.50;;;;;;;;;;4992405;28;20053;-68
2021/12/28 02:28:18;;;;;;;1.95;0.60;;;;;;;;;;4992293;28;20101;-69
2021/12/28 02:30:46;;;;;;;0.70;0.40;;;;;;;;;;4992374;28;20380;-69
2021/12/28 02:33:12;;;;;;;;;;;;;;;;;;4992690;28;20399;-68
2021/12/28 02:35:39;;;;;;;0.52;0.43;;;;;;;;;;4992380;28;19929;-68
2021/12/28 02:38:06;;;;;;;0.32;0.32;;;;;;;;;;4992051;28;20085;-68
2021/12/28 02:40:33;;;;;;;0.20;0.20;;;;;;;;;;4994403;28;20057;-68
2021/12/28 02:43:01;;;;;;;1.30;0.20;;;;;;;;;;4995709;28;20059;-68
2021/12/28 02:45:32;;;;;;;0.50;0.20;;;;;;;;;;4995963;28;20494;-69
2021/12/28 02:47:59;;;;;;;0.20;0.20;;;;;;;;;;4995993;28;20051;-70
2021/12/28 02:50:27;;;;;;;0.30;0.20;;;;;;;;;;4995793;28;20414;-70
2021/12/28 02:52:54;;;;;;;0.30;0.10;;;;;;;;;;4995905;28;20054;-70
2021/12/28 02:55:22;;;;;;;0.70;0.00;;;;;;;;;;5010446;28;20108;-70
2021/12/28 02:57:57;;;;;;;0.00;0.00;;;;;;;;;;4995816;28;20054;-70
2021/12/28 03:00:31;;;;;;;1.67;0.10;;;;;;;;;;4995727;28;20108;-70
2021/12/28 03:02:58;;;;;;;0.65;0.10;;;;;;;;;;4995402;28;20104;-71
2021/12/28 03:05:25;;;;;;;0.00;0.00;;;;;;;;;;4995475;28;20406;-71
2021/12/28 03:07:52;;;;;;;0.00;0.00;;;;;;;;;;4995510;28;20046;-71
2021/12/28 03:10:18;;;;;;;0.95;0.10;;;;;;;;;;4995666;28;20118;-71
2021/12/28 03:12:45;;;;;;;0.10;0.05;;;;;;;;;;4995272;28;20046;-71
2021/12/28 03:15:12;;;;;;;0.20;0.08;;;;;;;;;;4995360;28;20046;-71
2021/12/28 03:17:39;;;;;;;0.10;0.03;;;;;;;;;;4995144;28;20093;-71
2021/12/28 03:20:10;;;;;;;1.42;0.10;;;;;;;;;;4995190;28;20089;-71
2021/12/28 03:22:37;;;;;;;0.00;0.00;;;;;;;;;;4993859;28;20392;-71
2021/12/28 03:25:04;;;;;;;0.40;0.00;;;;;;;;;;4995412;28;20046;-69
2021/12/28 03:27:31;;;;;;;0.10;0.10;;;;;;;;;;4995095;28;20104;-70
2021/12/28 03:29:57;;;;;;;1.08;0.10;;;;;;;;;;4995264;28;20038;-70
2021/12/28 03:32:24;;;;;;;1.02;0.10;;;;;;;;;;4995451;28;20038;-71
2021/12/28 03:34:50;;;;;;;0.55;0.10;;;;;;;;;;4994825;28;20062;-71
2021/12/28 03:37:17;;;;;;;1.02;0.15;;;;;;;;;;4994856;28;20486;-71
2021/12/28 03:39:43;;;;;;;0.43;0.10;;;;;;;;;;4995043;28;20101;-69
2021/12/28 03:42:10;;;;;;;1.25;0.10;;;;;;;;;;4994978;28;20042;-71
2021/12/28 03:44:36;;;;;;;1.20;0.30;;;;;;;;;;4993287;28;20059;-71
2021/12/28 03:47:03;;;;;;;2.25;0.38;;;;;;;;;;4994928;28;20058;-71
2021/12/28 03:49:29;;;;;;;1.27;0.17;;;;;;;;;;4994505;28;20046;-71
2021/12/28 03:51:56;;;;;;;0.70;0.20;;;;;;;;;;4994212;28;20379;-71
2021/12/28 03:54:27;;;;;;;1.40;0.20;;;;;;;;;;4994565;28;20105;-71
2021/12/28 03:56:53;;;;;;;1.75;0.30;;;;;;;;;;4994479;28;20062;-71
2021/12/28 03:59:20;;;;;;;0.93;0.20;;;;;;;;;;4994757;28;20050;-71
2021/12/28 04:01:46;;;;;;;1.20;0.20;;;;;;;;;;4993109;28;20050;-71
2021/12/28 04:04:13;;;;;;;1.40;0.20;;;;;;;;;;4994170;28;20086;-71
2021/12/28 04:06:40;;;;;;;0.70;0.20;;;;;;;;;;4994563;28;20054;-70
2021/12/28 04:09:08;;;;;;;1.38;0.30;;;;;;;;;;4994391;28;20096;-71
2021/12/28 04:11:34;;;;;;;;;;;;;;;;;;4994681;28;20553;-70
2021/12/28 04:14:02;;;;;;;4.57;0.50;;;;;;;;;;4994208;28;19922;-70
2021/12/28 04:16:29;;;;;;;1.15;0.20;;;;;;;;;;4994379;28;20132;-71
2021/12/28 04:18:57;;;;;;;0.82;0.30;;;;;;;;;;4994034;28;20050;-71
2021/12/28 04:21:23;;;;;;;0.67;0.37;;;;;;;;;;4993942;28;20565;-70
2021/12/28 04:23:50;;;;;;;1.15;0.17;;;;;;;;;;4994180;28;20344;-71
2021/12/28 04:26:20;;;;;;;3.35;0.17;;;;;;;;;;4992889;28;20145;-70
2021/12/28 04:28:47;;;;;;;0.43;0.10;;;;;;;;;;4993026;28;20093;-70
2021/12/28 04:31:13;;;;;;;2.47;0.38;;;;;;;;;;4992617;28;20411;-71
2021/12/28 04:33:40;;;;;;;1.30;0.30;;;;;;;;;;4994059;28;20142;-71
2021/12/28 04:36:11;;;;;;;1.50;0.20;;;;;;;;;;4993825;28;20078;-69
2021/12/28 04:38:38;;;;;;;1.58;0.30;;;;;;;;;;4993849;28;20493;-69
2021/12/28 04:41:05;;;;;;;0.65;0.30;;;;;;;;;;4994016;28;20113;-69
2021/12/28 04:43:31;;;;;;;0.82;0.13;;;;;;;;;;4992551;28;20054;-69
2021/12/28 04:45:58;;;;;;;0.67;0.30;;;;;;;;;;4993573;28;20081;-69
2021/12/28 04:48:25;;;;;;;0.60;0.20;;;;;;;;;;4993376;28;20046;-69
2021/12/28 04:50:52;;;;;;;1.20;0.30;;;;;;;;;;4993439;28;20101;-68
2021/12/28 04:53:19;;;;;;;1.42;0.45;;;;;;;;;;4993483;28;20078;-68
2021/12/28 04:55:46;;;;;;;4.05;0.60;;;;;;;;;;4993452;28;20067;-68
2021/12/28 04:58:13;;;;;;;0.73;0.28;;;;;;;;;;4993394;28;20100;-69
2021/12/28 05:00:41;;;;;;;2.90;0.60;;;;;;;;;;4993224;28;20054;-69
2021/12/28 05:03:08;;;;;;;2.67;0.30;;;;;;;;;;4992505;28;20485;-69
2021/12/28 05:05:35;;;;;;;3.20;0.47;;;;;;;;;;4993192;28;20054;-68
2021/12/28 05:08:05;;;;;;;2.17;0.43;;;;;;;;;;4991876;28;20300;-69
2021/12/28 05:10:33;;;;;;;2.03;0.60;;;;;;;;;;4993109;28;20054;-69
2021/12/28 05:13:00;;;;;;;2.92;0.32;;;;;;;;;;4991831;28;20042;-69
2021/12/28 05:15:26;;;;;;;1.23;0.30;;;;;;;;;;4993058;28;20058;-68
2021/12/28 05:17:53;;;;;;;0.85;0.30;;;;;;;;;;4992931;28;20046;-68
2021/12/28 05:20:19;;;;;;;3.38;0.60;;;;;;;;;;4993278;28;20457;-68
2021/12/28 05:22:46;;;;;;;1.27;0.40;;;;;;;;;;4993160;28;20383;-68
2021/12/28 05:25:12;;;;;;;2.72;0.65;;;;;;;;;;4992796;28;20055;-69
2021/12/28 05:27:39;;;;;;;1.95;0.40;;;;;;;;;;4992993;28;20050;-70
2021/12/28 05:30:06;;;;;;;3.65;0.50;;;;;;;;;;4993063;28;20043;-70
2021/12/28 05:32:33;;;;;;;2.60;0.40;;;;;;;;;;4992888;28;20046;-71
2021/12/28 05:34:59;;;;;;;1.60;0.30;;;;;;;;;;4991549;28;20042;-70
2021/12/28 05:37:26;;;;;;;3.75;0.32;;;;;;;;;;4992852;28;20050;-70
2021/12/28 05:39:53;;;;;;;2.35;0.47;;;;;;;;;;4992876;28;20047;-70
2021/12/28 05:42:19;;;;;;;4.25;0.50;;;;;;;;;;4992621;28;20054;-70
2021/12/28 05:44:46;;;;;;;4.82;0.40;;;;;;;;;;4992391;28;20450;-70
2021/12/28 05:47:13;;;;;;;3.88;0.68;;;;;;;;;;4992439;28;20096;-69
2021/12/28 05:49:39;;;;;;;4.97;0.57;;;;;;;;;;4992679;28;20046;-69
2021/12/28 05:52:06;;;;;;;6.45;0.82;;;;;;;;;;4992733;28;20042;-69
2021/12/28 05:54:32;;;;;;;9.02;1.00;;;;;;;;;;4992457;28;20054;-68
2021/12/28 05:56:59;;;;;;;9.05;1.27;;;;;;;;;;4992294;28;20525;-68
2021/12/28 05:59:25;;;;;;;11.32;2.10;;;;;;;;;;4992559;28;20049;-68
2021/12/28 06:01:52;;;;;;;11.88;1.48;;;;;;;;;;5007314;28;20570;-68
2021/12/28 06:04:19;;;;;;;13.43;1.75;;;;;;;;;;4992494;28;20398;-68
2021/12/28 06:06:45;;;;;;;19.75;2.65;;;;;;;;;;4992245;28;20573;-68
2021/12/28 06:09:12;;;;;;;14.52;1.83;;;;;;;;;;4992117;28;20466;-68
2021/12/28 06:11:38;;;;;;;13.10;3.17;;;;;;;;;;4992261;28;20482;-68
2021/12/28 06:14:05;;;;;;;18.67;1.80;;;;;;;;;;4992168;28;20069;-67
2021/12/28 06:16:34;;;;;;;13.35;2.25;;;;;;;;;;5011318;28;20113;-67
2021/12/28 06:19:01;;;;;;;14.93;2.38;;;;;;;;;;4996374;28;20050;-67
2021/12/28 06:21:30;;;;;;;20.98;2.63;;;;;;;;;;4996246;28;20466;-67
2021/12/28 06:23:59;;;;;;;12.77;2.13;;;;;;;;;;4996437;28;20057;-67
2021/12/28 06:26:26;;;;;;;25.48;3.25;;;;;;;;;;4996335;28;20062;-67
2021/12/28 06:28:53;;;;;;;18.98;3.08;;;;;;;;;;4996324;28;20384;-67
2021/12/28 06:31:19;;;;;;;19.23;3.28;;;;;;;;;;4996266;28;20104;-68
2021/12/28 06:33:46;;;;;;;19.00;3.30;;;;;;;;;;4996042;28;20082;-67
2021/12/28 06:36:13;;;;;;;16.20;2.80;;;;;;;;;;4996199;28;20046;-67
2021/12/28 06:38:39;;;;;;;24.83;4.45;;;;;;;;;;4996228;28;20112;-67
2021/12/28 06:41:07;;;;;;;22.83;2.38;;;;;;;;;;4995732;28;20058;-67
2021/12/28 06:43:33;;;;;;;18.75;2.40;;;;;;;;;;4982721;28;20104;-67
2021/12/28 06:46:00;;;;;;;26.92;4.10;;;;;;;;;;4996057;28;20058;-67
2021/12/28 06:48:27;;;;;;;19.55;3.03;;;;;;;;;;4995644;28;20491;-67
2021/12/28 06:50:53;;;;;;;20.65;3.65;;;;;;;;;;4995709;28;20109;-67
2021/12/28 06:53:19;;;;;;;21.33;3.30;;;;;;;;;;4995902;28;20827;-68
2021/12/28 06:55:46;;;;;;;21.63;3.97;;;;;;;;;;4995530;28;20494;-68
2021/12/28 06:58:12;;;;;;;18.00;3.08;;;;;;;;;;5010653;28;20105;-68
2021/12/28 07:00:41;;;;;;;28.15;3.40;;;;;;;;;;4995767;28;20046;-68
2021/12/28 07:03:07;;;;;;;23.35;3.40;;;;;;;;;;4995582;28;20134;-68
2021/12/28 07:05:34;;;;;;;25.85;3.42;;;;;;;;;;5010287;28;20058;-68
2021/12/28 07:08:01;;;;;;;27.77;4.47;;;;;;;;;;4995389;28;20565;-68
2021/12/28 07:10:27;;;;;;;24.25;3.92;;;;;;;;;;4995576;28;20449;-68
2021/12/28 07:12:54;;;;;;;23.75;3.38;;;;;;;;;;4995328;28;20569;-68
2021/12/28 07:15:21;;;;;;;22.67;2.88;;;;;;;;;;4995377;28;20054;-68
2021/12/28 07:17:48;;;;;;;21.30;3.30;;;;;;;;;;4995450;28;20105;-68
2021/12/28 07:20:15;;;;;;;19.50;2.83;;;;;;;;;;4995478;28;20054;-68
2021/12/28 07:22:41;;;;;;;17.20;2.60;;;;;;;;;;4995483;28;20124;-68
2021/12/28 07:25:08;;;;;;;21.60;4.18;;;;;;;;;;4995107;28;20042;-68
2021/12/28 07:27:35;;;;;;;14.27;2.15;;;;;;;;;;4994061;28;20050;-68
2021/12/28 07:30:04;;;;;;;16.33;3.20;;;;;;;;;;5010333;28;20050;-68
2021/12/28 07:32:31;;;;;;;12.15;2.58;;;;;;;;;;4995191;28;20109;-67
2021/12/28 07:34:57;;;;;;;18.52;2.92;;;;;;;;;;4995162;28;20054;-67
2021/12/28 07:37:24;;;;;;;17.98;3.03;;;;;;;;;;4995213;28;20105;-67
2021/12/28 07:39:53;;;;;;;12.07;1.95;;;;;;;;;;4995074;28;20128;-67
2021/12/28 07:42:20;;;;;;;15.52;2.70;;;;;;;;;;4994791;28;20105;-67
2021/12/28 07:44:47;;;;;;;15.90;2.90;;;;;;;;;;4994687;28;20043;-67
2021/12/28 07:47:13;;;;;;;18.48;3.15;;;;;;;;;;5009450;28;20839;-68
2021/12/28 07:49:40;;;;;;;14.20;3.35;;;;;;;;;;5009953;28;20433;-68
2021/12/28 07:52:06;;;;;;;20.65;3.03;;;;;;;;;;4994721;28;20108;-68
2021/12/28 07:54:33;;;;;;;16.25;2.22;;;;;;;;;;4994805;28;20058;-71
2021/12/28 07:56:59;;;;;;;11.15;3.17;;;;;;;;;;4994437;28;20190;-71
2021/12/28 07:59:26;;;;;;;10.73;1.98;;;;;;;;;;4994743;28;20108;-72
2021/12/28 08:01:52;;;;;;;10.95;1.90;;;;;;;;;;4994444;28;20057;-71
2021/12/28 08:04:19;;;;;;;8.25;1.25;;;;;;;;;;4989021;28;20082;-70
2021/12/28 08:06:46;;;;;;;8.38;1.10;;;;;;;;;;4984868;28;20391;-70
2021/12/28 08:09:12;;;;;;;6.55;1.25;;;;;;;;;;4994359;28;20523;-70
2021/12/28 08:11:39;;;;;;;6.97;1.05;;;;;;;;;;4994281;28;20042;-70
2021/12/28 08:14:06;;;;;;;9.20;1.17;;;;;;;;;;4993979;28;20100;-72
2021/12/28 08:16:32;;;;;;;3.83;0.57;;;;;;;;;;4994498;28;20079;-74
2021/12/28 08:18:59;;;;;;;2.42;0.38;;;;;;;;;;4994356;28;20463;-77
2021/12/28 08:21:42;;;;;;;1.75;0.40;;;;;;;;;;4990930;28;20093;-74
2021/12/28 08:24:08;;;;;;;5.20;0.50;;;;;;;;;;4993920;28;20050;-76
2021/12/28 08:26:35;;;;;;;2.42;0.38;;;;;;;;;;4994208;28;20117;-74
2021/12/28 08:29:01;;;;;;;7.55;1.00;;;;;;;;;;4994452;28;20852;-70
2021/12/28 08:31:28;;;;;;;8.43;1.20;;;;;;;;;;4993450;28;20572;-70
2021/12/28 08:33:55;;;;;;;13.65;1.17;;;;;;;;;;4993469;28;20403;-70
2021/12/28 08:36:22;;;;;;;9.38;2.20;;;;;;;;;;4993467;28;20049;-72
2021/12/28 08:38:48;;;;;;;5.63;1.00;;;;;;;;;;4993057;28;20197;-71
2021/12/28 08:41:17;;;;;;;12.07;1.77;;;;;;;;;;4993216;28;20042;-70
2021/12/28 08:43:45;;;;;;;18.02;3.15;;;;;;;;;;4993606;28;20126;-72
2021/12/28 08:46:12;;;;;;;14.48;3.70;;;;;;;;;;4993315;28;20049;-72
2021/12/28 08:48:38;;;;;;;18.60;4.32;;;;;;;;;;4992914;28;20096;-72
2021/12/28 08:51:05;;;;;;;13.80;2.55;;;;;;;;;;4993153;28;20038;-73
2021/12/28 08:53:31;;;;;;;19.60;2.80;;;;;;;;;;4993532;28;20047;-72
2021/12/28 08:55:58;;;;;;;20.17;3.60;;;;;;;;;;4993298;28;20046;-73
2021/12/28 08:58:25;;;;;;;26.15;4.10;;;;;;;;;;4993533;28;20054;-72
2021/12/28 09:00:51;;;;;;;23.65;3.33;;;;;;;;;;4993209;28;20050;-72
2021/12/28 09:03:18;;;;;;;27.98;7.25;;;;;;;;;;5008472;28;20057;-75
2021/12/28 09:05:45;;;;;;;40.83;13.38;;;;;;;;;;4993162;28;20058;-76
2021/12/28 09:08:16;;;;;;;28.20;8.48;;;;;;;;;;4993366;28;20046;-73
2021/12/28 09:10:43;;;;;;;40.33;9.60;;;;;;;;;;4993357;28;20062;-73
2021/12/28 09:13:11;;;;;;;40.17;8.70;;;;;;;;;;4993167;28;20442;-74
2021/12/28 09:15:37;;;;;;;32.83;7.00;;;;;;;;;;4993077;28;20050;-74
2021/12/28 09:18:04;;;;;;;34.63;6.78;;;;;;;;;;4992922;28;20100;-74
2021/12/28 09:20:30;;;;;;;33.92;6.75;;;;;;;;;;4992977;28;20124;-72
2021/12/28 09:23:09;;;;;;;32.95;6.47;;;;;;;;;;4993197;28;20046;-73
2021/12/28 09:25:36;;;;;;;32.17;6.07;;;;;;;;;;4992835;28;20105;-76
2021/12/28 09:28:03;;;;;;;38.77;9.13;;;;;;;;;;4992947;28;20042;-75
2021/12/28 09:30:31;;;;;;;31.33;6.40;;;;;;;;;;4992894;28;20335;-73
2021/12/28 09:32:57;;;;;;;30.17;5.95;;;;;;;;;;4991274;28;20050;-72
2021/12/28 09:35:23;;;;;;;37.95;8.15;;;;;;;;;;4992670;28;20046;-71
2021/12/28 09:37:50;;;;;;;42.60;6.55;;;;;;;;;;4989668;28;20116;-71
2021/12/28 09:40:17;;;;;;;34.53;5.95;;;;;;;;;;4992478;28;20060;-70
2021/12/28 09:42:43;;;;;;;40.72;5.78;;;;;;;;;;4992892;28;20119;-70
2021/12/28 09:45:11;;;;;;;36.63;7.00;;;;;;;;;;4992587;28;20109;-70
2021/12/28 09:47:37;;;;;;;39.75;7.13;;;;;;;;;;4992413;28;20054;-70
2021/12/28 09:50:05;;;;;;;27.55;5.72;;;;;;;;;;4991938;28;20046;-70
2021/12/28 09:52:31;;;;;;;28.75;5.20;;;;;;;;;;4992682;28;20046;-70
2021/12/28 09:54:58;;;;;;;34.35;5.93;;;;;;;;;;4992678;28;20453;-69
2021/12/28 09:57:25;;;;;;;24.20;4.25;;;;;;;;;;4992440;28;20042;-70
2021/12/28 09:59:51;;;;;;;47.65;13.68;;;;;;;;;;4992331;28;20058;-69
2021/12/28 10:02:18;;;;;;;35.70;6.60;;;;;;;;;;4992294;28;20109;-68
2021/12/28 10:04:55;;;;;;;34.97;5.90;;;;;;;;;;4992504;28;20050;-68
2021/12/28 10:07:42;;;;;;;;;;;;;;;;;;4992804;28;20137;-68
2021/12/28 10:10:09;;;;;;;22.58;4.53;;;;;;;;;;4991095;28;19949;-69
2021/12/28 10:12:44;;;;;;;23.80;4.85;;;;;;;;;;4992024;28;20109;-70
2021/12/28 10:15:15;;;;;;;41.90;6.82;;;;;;;;;;4992251;28;20124;-71
2021/12/28 10:17:43;;;;;;;39.60;6.13;;;;;;;;;;4992136;28;20054;-70
2021/12/28 10:20:11;;;;;;;48.60;7.18;;;;;;;;;;4992089;28;20058;-70
2021/12/28 10:22:48;;;;;;;36.47;6.05;;;;;;;;;;4992053;28;20064;-71
2021/12/28 10:25:17;;;;;;;32.33;5.15;;;;;;;;;;4992314;28;20050;-71
2021/12/28 10:27:49;;;;;;;35.53;6.18;;;;;;;;;;4992187;28;20050;-73
2021/12/28 10:30:21;;;;;;;36.85;7.03;;;;;;;;;;4992239;28;20046;-71
2021/12/28 10:32:52;;;;;;;26.40;5.65;;;;;;;;;;4992537;28;20061;-72
2021/12/28 10:35:23;;;;;;;30.02;5.57;;;;;;;;;;4992367;28;20054;-71
2021/12/28 10:38:00;;;;;;;25.63;4.47;;;;;;;;;;4991538;28;20057;-71
2021/12/28 10:40:32;;;;;;;29.23;4.78;;;;;;;;;;4992176;28;20050;-72
2021/12/28 10:43:01;;;;;;;30.60;5.28;;;;;;;;;;4992211;28;20050;-72
2021/12/28 10:45:31;;;;;;;35.63;5.35;;;;;;;;;;4991823;28;20554;-69
2021/12/28 10:48:02;;;;;;;35.33;5.75;;;;;;;;;;4991922;28;20047;-70
2021/12/28 10:50:33;;;;;;;40.60;5.70;;;;;;;;;;4992233;28;20050;-69
2021/12/28 10:53:06;;;;;;;34.08;5.78;;;;;;;;;;4990665;28;20104;-71
2021/12/28 10:55:33;;;;;;;33.60;5.63;;;;;;;;;;4991899;28;20096;-70
2021/12/28 10:58:02;;;;;;;31.47;4.47;;;;;;;;;;4991398;28;20096;-68
2021/12/28 11:00:37;;;;;;;36.22;5.75;;;;;;;;;;4992462;28;20485;-65
2021/12/28 11:03:20;;;;;;;29.65;6.07;;;;;;;;;;4993362;28;20174;-66
2021/12/28 11:05:47;;;;;;;32.85;4.82;;;;;;;;;;4984840;28;20061;-67
2021/12/28 11:08:15;;;;;;;27.38;5.30;;;;;;;;;;4995493;28;20058;-66
2021/12/28 11:10:43;;;;;;;35.50;5.55;;;;;;;;;;4995724;28;20072;-67
2021/12/28 11:13:09;;;;;;;;;;;;;;;;;;4995562;28;20054;-67
2021/12/28 11:15:38;;;;;;;26.33;4.75;;;;;;;;;;4994750;28;19925;-68
2021/12/28 11:18:18;;;;;;;23.75;4.95;;;;;;;;;;4995278;28;20062;-68
2021/12/28 11:20:44;;;;;;;22.23;3.20;;;;;;;;;;4995305;28;20125;-68
2021/12/28 11:23:13;;;;;;;20.45;3.78;;;;;;;;;;4991967;28;21116;-65
2021/12/28 11:25:40;;;;;;;18.13;3.47;;;;;;;;;;4995004;28;20047;-72
2021/12/28 11:28:14;;;;;;;21.30;3.88;;;;;;;;;;4983253;28;20102;-69
2021/12/28 11:30:56;;;;;;;20.05;3.85;;;;;;;;;;4994845;28;20042;-73
2021/12/28 11:33:22;;;;;;;22.17;4.80;;;;;;;;;;4995242;28;20065;-72
2021/12/28 11:35:49;;;;;;;16.55;3.05;;;;;;;;;;4995108;28;20108;-74
2021/12/28 11:38:15;;;;;;;19.60;5.60;;;;;;;;;;4994879;28;20050;-72
2021/12/28 11:40:42;;;;;;;16.10;3.03;;;;;;;;;;5009995;28;20388;-69
2021/12/28 11:43:08;;;;;;;18.40;3.55;;;;;;;;;;4994806;28;20556;-71
2021/12/28 11:45:35;;;;;;;23.67;5.55;;;;;;;;;;4994903;28;20051;-72
2021/12/28 11:48:01;;;;;;;26.55;4.35;;;;;;;;;;4994432;28;20129;-71
2021/12/28 11:50:28;;;;;;;26.80;5.38;;;;;;;;;;4994546;28;20498;-71
2021/12/28 11:52:54;;;;;;;29.27;6.22;;;;;;;;;;4994524;28;20124;-72
2021/12/28 11:55:21;;;;;;;20.70;3.55;;;;;;;;;;4994522;28;20073;-71
2021/12/28 11:57:51;;;;;;;26.27;5.72;;;;;;;;;;4993244;28;20116;-72
2021/12/28 12:00:20;;;;;;;13.45;2.70;;;;;;;;;;4994412;28;20057;-74
2021/12/28 12:02:49;;;;;;;17.83;4.10;;;;;;;;;;4979845;28;20053;-74
2021/12/28 12:05:17;;;;;;;17.65;3.75;;;;;;;;;;4984652;28;20101;-69
2021/12/28 12:07:44;;;;;;;10.63;3.10;;;;;;;;;;4994219;28;20731;-71
2021/12/28 12:10:18;;;;;;;14.02;2.95;;;;;;;;;;4994360;28;20046;-73
2021/12/28 12:12:53;;;;;;;8.13;2.25;;;;;;;;;;4992225;28;20081;-72
2021/12/28 12:15:21;;;;;;;8.13;2.28;;;;;;;;;;4980548;28;20062;-71
2021/12/28 12:17:48;;;;;;;7.38;1.75;;;;;;;;;;4974240;28;20053;-70
2021/12/28 12:20:23;;;;;;;7.00;1.98;;;;;;;;;;4974497;28;20046;-71
2021/12/28 12:23:07;;;;;;;6.95;1.60;;;;;;;;;;4983784;28;20050;-70
2021/12/28 12:25:48;;;;;;;5.90;2.55;;;;;;;;;;4993489;28;20054;-70
2021/12/28 12:28:18;;;;;;;5.53;2.33;;;;;;;;;;4990249;28;20121;-70
2021/12/28 12:30:54;;;;;;;6.85;1.70;;;;;;;;;;4989881;28;20077;-71
2021/12/28 12:33:21;;;;;;;3.95;1.20;;;;;;;;;;4993600;28;20078;-70
2021/12/28 12:35:47;;;;;;;4.83;1.60;;;;;;;;;;4993871;28;20050;-71
2021/12/28 12:38:14;;;;;;;5.78;1.52;;;;;;;;;;4994026;28;20054;-72
2021/12/28 12:40:59;;;;;;;5.80;1.65;;;;;;;;;;4993598;28;20450;-71
2021/12/28 12:43:35;;;;;;;4.55;1.30;;;;;;;;;;4993663;28;20058;-70
2021/12/28 12:46:09;;;;;;;5.82;1.35;;;;;;;;;;4993530;28;20046;-70
2021/12/28 12:48:36;;;;;;;6.38;1.48;;;;;;;;;;4993877;28;20129;-71
2021/12/28 12:51:21;;;;;;;4.45;1.40;;;;;;;;;;4993529;28;20457;-71
2021/12/28 12:53:54;;;;;;;4.97;1.50;;;;;;;;;;4993456;28;20046;-71
2021/12/28 12:56:25;;;;;;;3.80;1.33;;;;;;;;;;4994028;28;20050;-70
2021/12/28 12:58:53;;;;;;;5.57;1.40;;;;;;;;;;4993287;28;20097;-70
2021/12/28 13:01:22;;;;;;;6.25;1.73;;;;;;;;;;4993625;28;20096;-71
2021/12/28 13:03:49;;;;;;;2.78;1.00;;;;;;;;;;4993409;28;20056;-71
2021/12/28 13:06:36;;;;;;;4.13;1.00;;;;;;;;;;4993358;28;20049;-71
2021/12/28 13:09:04;;;;;;;2.92;0.90;;;;;;;;;;4992757;28;20466;-70
2021/12/28 13:11:32;;;;;;;3.47;1.20;;;;;;;;;;4992756;28;20069;-71
2021/12/28 13:13:58;;;;;;;;;;;;;;;;;;5008431;28;20109;-71
2021/12/28 13:16:24;;;;;;;3.30;0.77;;;;;;;;;;4993271;28;19926;-71
2021/12/28 13:19:04;;;;;;;2.63;0.70;;;;;;;;;;4993684;28;20285;-71
2021/12/28 13:21:30;;;;;;;2.08;0.90;;;;;;;;;;4975086;28;20054;-68
2021/12/28 13:24:15;;;;;;;3.60;0.83;;;;;;;;;;4992301;28;20042;-70
2021/12/28 13:26:46;;;;;;;2.42;0.75;;;;;;;;;;4983483;28;20050;-70
2021/12/28 13:29:26;;;;;;;3.05;0.77;;;;;;;;;;4973283;28;20097;-69
2021/12/28 13:31:53;;;;;;;4.22;0.93;;;;;;;;;;4973458;28;20038;-70
2021/12/28 13:34:20;;;;;;;2.53;0.80;;;;;;;;;;4977427;28;20053;-70
2021/12/28 13:36:53;;;;;;;3.10;1.13;;;;;;;;;;4992736;28;20054;-70
2021/12/28 13:39:20;;;;;;;1.23;0.70;;;;;;;;;;4991302;28;20054;-70
2021/12/28 13:41:48;;;;;;;3.30;0.90;;;;;;;;;;5007581;28;20056;-69
2021/12/28 13:44:14;;;;;;;;;;;;;;;;;;4991237;28;20054;-69
2021/12/28 13:46:41;;;;;;;2.17;0.50;;;;;;;;;;4991983;28;19922;-69
2021/12/28 13:49:07;;;;;;;2.30;0.63;;;;;;;;;;4992562;28;20760;-69
2021/12/28 13:51:34;;;;;;;2.50;0.80;;;;;;;;;;4992403;28;20528;-69
2021/12/28 13:54:02;;;;;;;2.45;0.75;;;;;;;;;;4992585;28;20042;-68
2021/12/28 13:56:33;;;;;;;;;;;;;;;;;;4992513;28;20061;-68
2021/12/28 13:59:00;;;;;;;3.10;1.10;;;;;;;;;;4992451;28;19929;-70
2021/12/28 14:01:27;;;;;;;;;;;;;;;;;;4992683;28;20129;-69
2021/12/28 14:03:55;;;;;;;8.00;3.72;;;;;;;;;;4992336;28;19922;-70
2021/12/28 14:06:22;;;;;;;6.93;5.80;;;;;;;;;;4992175;28;20570;-68
2021/12/28 14:08:48;;;;;;;5.05;3.08;;;;;;;;;;4992249;28;20078;-69
2021/12/28 14:11:27;;;;;;;4.45;2.78;;;;;;;;;;4992215;28;20054;-70
2021/12/28 14:13:54;;;;;;;7.20;5.55;;;;;;;;;;4991982;28;20068;-75
2021/12/28 14:16:20;;;;;;;4.40;3.42;;;;;;;;;;4992009;28;20518;-71
2021/12/28 14:18:48;;;;;;;3.20;1.80;;;;;;;;;;4992454;28;20046;-70
2021/12/28 14:21:16;;;;;;;3.28;1.88;;;;;;;;;;4986857;28;20388;-70
2021/12/28 14:23:44;;;;;;;2.22;1.02;;;;;;;;;;4984307;28;20101;-70
2021/12/28 14:26:13;;;;;;;0.90;0.70;;;;;;;;;;4992130;28;20105;-70
2021/12/28 14:29:03;;;;;;;1.67;1.52;;;;;;;;;;4989616;28;20129;-70
2021/12/28 14:31:44;;;;;;;3.08;1.60;;;;;;;;;;4992126;28;20392;-70
2021/12/28 14:34:12;;;;;;;1.42;0.60;;;;;;;;;;4992025;28;20553;-70
2021/12/28 14:36:44;;;;;;;1.08;0.90;;;;;;;;;;4994558;28;20506;-70
2021/12/28 14:39:12;;;;;;;4.00;2.88;;;;;;;;;;4996164;28;20105;-70
2021/12/28 14:41:39;;;;;;;9.43;7.15;;;;;;;;;;4994380;28;20359;-70
2021/12/28 14:44:22;;;;;;;6.68;3.92;;;;;;;;;;4996061;28;20051;-70
2021/12/28 14:46:51;;;;;;;5.95;3.97;;;;;;;;;;4995781;28;20454;-70
2021/12/28 14:49:23;;;;;;;6.45;4.90;;;;;;;;;;4995944;28;20434;-70